Main page
METAR-TAF:

METAR-TAF

Airports :

Camdenton Memorial Airport

Camdenton, Missouri, United States

latitude: 37-58-26N, longitude: 092-41-28W, elevation: 1063 ft

Current weather observation

The report was made 40 minutes ago, at 21:55 UTC
Wind 6 mph from the South/Southeast
Temperature 88°F
Humidity 43%
Pressure 30.19 in. Hg
Visibility: 10 miles
Clear sky

METAR: KOZS 192155Z AUTO 15005KT 10SM CLR 31/17 A3019 RMK AO2

Time: 17:35 (22:35 UTC)


TAF: missing

Weather observations and forecasts of more than 4000 airports (METAR and TAF reports).

The available stations are represented by yellow and red dots on the map.

Hover mouse over dot to see the name of the station.

Then click to see weather observations and forecasts.

To change the map : click on the green buttons with a black cross to zoom in, on the green button with a dash to zoom out, or on the green arrows for adjacent maps.


METAR-TAF: